Time,TemperatureF,DewpointF,PressureIn,WindDirection,WindDirectionDegrees,WindSpeedMPH,WindSpeedGustMPH,Humidity,HourlyPrecipIn,Conditions,Clouds,dailyrainin,SoftwareType,DateUTC
2013-02-20 00:06:00,33.6,33.0,29.99,WSW,256,1.0,2.0,98,0.00,,,0.00,weatherlink.com 1.10,2013-02-20 08:06:00,
2013-02-20 00:21:00,33.2,33.0,30.00,West,274,0.0,2.0,97,0.00,,,0.00,weatherlink.com 1.10,2013-02-20 08:21:00,
2013-02-20 00:36:00,33.2,33.0,30.00,West,269,2.0,2.0,97,0.00,,,0.00,weatherlink.com 1.10,2013-02-20 08:36:00,
2013-02-20 00:51:00,33.4,33.0,30.00,West,274,1.0,1.0,97,0.00,,,0.00,weatherlink.com 1.10,2013-02-20 08:51:00,
2013-02-20 01:06:00,33.6,33.0,30.00,West,262,0.0,1.0,98,0.00,,,0.00,weatherlink.com 1.10,2013-02-20 09:06:00,
2013-02-20 01:21:00,33.8,33.0,30.00,West,262,0.0,1.0,97,0.00,,,0.00,weatherlink.com 1.10,2013-02-20 09:21:00,
2013-02-20 01:36:00,33.6,33.0,30.00,West,262,1.0,1.0,97,0.00,,,0.00,weatherlink.com 1.10,2013-02-20 09:36:00,
2013-02-20 01:51:00,33.1,32.0,30.00,West,260,1.0,2.0,97,0.00,,,0.00,weatherlink.com 1.10,2013-02-20 09:51:00,
2013-02-20 02:06:00,33.4,33.0,30.01,West,265,2.0,2.0,98,0.00,,,0.00,weatherlink.com 1.10,2013-02-20 10:06:00,
2013-02-20 02:21:00,34.0,34.0,30.01,West,273,0.0,1.0,98,0.00,,,0.00,weatherlink.com 1.10,2013-02-20 10:21:00,
2013-02-20 02:36:00,34.5,34.0,30.01,East,79,1.0,1.0,98,0.00,,,0.00,weatherlink.com 1.10,2013-02-20 10:36:00,
2013-02-20 02:51:00,34.4,34.0,30.01,SW,219,1.0,1.0,97,0.00,,,0.00,weatherlink.com 1.10,2013-02-20 10:51:00,
2013-02-20 03:06:00,34.7,34.0,30.01,SW,218,0.0,0.0,98,0.00,,,0.00,weatherlink.com 1.10,2013-02-20 11:06:00,
2013-02-20 03:21:00,34.9,34.0,30.02,WSW,246,1.0,1.0,97,0.00,,,0.00,weatherlink.com 1.10,2013-02-20 11:21:00,
2013-02-20 03:36:00,34.6,34.0,30.01,West,264,0.0,1.0,98,0.00,,,0.00,weatherlink.com 1.10,2013-02-20 11:36:00,
2013-02-20 03:51:00,34.7,34.0,30.02,West,264,1.0,1.0,97,0.00,,,0.00,weatherlink.com 1.10,2013-02-20 11:51:00,
2013-02-20 04:06:00,34.7,34.0,30.01,West,264,0.0,1.0,98,0.00,,,0.00,weatherlink.com 1.10,2013-02-20 12:06:00,
2013-02-20 04:21:00,35.0,35.0,30.01,West,262,0.0,1.0,98,0.00,,,0.00,weatherlink.com 1.10,2013-02-20 12:21:00,
2013-02-20 04:36:00,34.7,34.0,30.01,West,264,0.0,0.0,98,0.00,,,0.00,weatherlink.com 1.10,2013-02-20 12:36:00,
2013-02-20 04:51:00,34.4,34.0,30.02,West,263,1.0,2.0,98,0.00,,,0.00,weatherlink.com 1.10,2013-02-20 12:51:00,
2013-02-20 05:06:00,34.7,34.0,30.02,West,266,1.0,1.0,98,0.00,,,0.00,weatherlink.com 1.10,2013-02-20 13:06:00,
2013-02-20 05:21:00,34.7,34.0,30.02,WSW,257,0.0,1.0,98,0.00,,,0.00,weatherlink.com 1.10,2013-02-20 13:21:00,
2013-02-20 05:36:00,34.5,34.0,30.02,West,273,0.0,1.0,98,0.00,,,0.00,weatherlink.com 1.10,2013-02-20 13:36:00,
2013-02-20 05:51:00,34.8,34.0,30.02,West,278,2.0,2.0,98,0.00,,,0.00,weatherlink.com 1.10,2013-02-20 13:51:00,
2013-02-20 06:06:00,34.8,34.0,30.02,West,265,0.0,1.0,98,0.00,,,0.00,weatherlink.com 1.10,2013-02-20 14:06:00,
2013-02-20 06:21:00,35.3,35.0,30.01,South,190,1.0,1.0,98,0.00,,,0.00,weatherlink.com 1.10,2013-02-20 14:21:00,
2013-02-20 06:36:00,35.3,35.0,30.01,West,273,1.0,1.0,98,0.00,,,0.00,weatherlink.com 1.10,2013-02-20 14:36:00,
2013-02-20 06:51:00,35.5,35.0,30.01,West,277,0.0,1.0,98,0.00,,,0.00,weatherlink.com 1.10,2013-02-20 14:51:00,
2013-02-20 07:06:00,35.8,35.0,30.01,West,263,0.0,1.0,98,0.00,,,0.00,weatherlink.com 1.10,2013-02-20 15:06:00,
2013-02-20 07:21:00,35.7,35.0,30.01,West,267,1.0,1.0,98,0.00,,,0.00,weatherlink.com 1.10,2013-02-20 15:21:00,
2013-02-20 07:36:00,35.8,35.0,30.01,West,273,0.0,1.0,98,0.00,,,0.00,weatherlink.com 1.10,2013-02-20 15:36:00,
2013-02-20 07:51:00,36.3,36.0,30.01,SW,232,0.0,1.0,98,0.00,,,0.00,weatherlink.com 1.10,2013-02-20 15:51:00,
2013-02-20 08:06:00,36.7,36.0,30.00,SSW,194,1.0,1.0,98,0.00,,,0.00,weatherlink.com 1.10,2013-02-20 16:06:00,
2013-02-20 08:22:00,37.2,37.0,30.00,SE,133,0.0,1.0,98,0.00,,,0.00,weatherlink.com 1.10,2013-02-20 16:22:00,
2013-02-20 08:37:00,37.9,37.0,30.00,West,266,0.0,2.0,97,0.00,,,0.00,weatherlink.com 1.10,2013-02-20 16:37:00,
2013-02-20 08:52:00,38.7,38.0,30.00,SSW,193,5.0,6.0,97,0.00,,,0.00,weatherlink.com 1.10,2013-02-20 16:52:00,
2013-02-20 09:07:00,39.7,38.0,30.00,South,185,5.0,11.0,95,0.00,,,0.00,weatherlink.com 1.10,2013-02-20 17:07:00,
2013-02-20 09:22:00,39.8,38.0,30.00,SSE,166,6.0,12.0,94,0.00,,,0.00,weatherlink.com 1.10,2013-02-20 17:22:00,
2013-02-20 09:37:00,40.0,39.0,30.00,SSE,165,6.0,10.0,94,0.00,,,0.00,weatherlink.com 1.10,2013-02-20 17:37:00,
2013-02-20 09:52:00,40.4,39.0,29.99,SSE,150,9.0,12.0,94,0.00,,,0.00,weatherlink.com 1.10,2013-02-20 17:52:00,
2013-02-20 10:07:00,40.9,39.0,29.99,SE,141,9.0,10.0,93,0.00,,,0.00,weatherlink.com 1.10,2013-02-20 18:07:00,
2013-02-20 10:22:00,41.1,39.0,30.00,SE,138,6.0,12.0,92,0.00,,,0.00,weatherlink.com 1.10,2013-02-20 18:22:00,
2013-02-20 10:37:00,41.5,39.0,30.00,SSE,165,9.0,15.0,91,0.00,,,0.00,weatherlink.com 1.10,2013-02-20 18:37:00,
2013-02-20 10:52:00,41.8,39.0,30.00,South,186,5.0,18.0,90,0.00,,,0.00,weatherlink.com 1.10,2013-02-20 18:52:00,
2013-02-20 11:07:00,42.0,39.0,30.00,SSE,153,9.0,19.0,89,0.00,,,0.00,weatherlink.com 1.10,2013-02-20 19:07:00,
2013-02-20 11:22:00,42.4,39.0,30.00,SSE,160,10.0,14.0,89,0.00,,,0.00,weatherlink.com 1.10,2013-02-20 19:22:00,
2013-02-20 11:37:00,42.4,39.0,30.00,SSE,162,8.0,15.0,89,0.00,,,0.00,weatherlink.com 1.10,2013-02-20 19:37:00,
2013-02-20 11:52:00,42.9,40.0,29.98,SSE,153,5.0,10.0,88,0.00,,,0.00,weatherlink.com 1.10,2013-02-20 19:52:00,
2013-02-20 12:07:00,43.6,40.0,29.98,SSE,155,6.0,14.0,87,0.00,,,0.00,weatherlink.com 1.10,2013-02-20 20:07:00,
2013-02-20 12:22:00,43.7,40.0,29.98,SSW,210,5.0,9.0,85,0.00,,,0.00,weatherlink.com 1.10,2013-02-20 20:22:00,
2013-02-20 12:37:00,44.0,40.0,29.98,SSE,151,12.0,12.0,85,0.00,,,0.00,weatherlink.com 1.10,2013-02-20 20:37:00,
2013-02-20 12:52:00,44.1,40.0,29.97,South,171,5.0,14.0,84,0.00,,,0.00,weatherlink.com 1.10,2013-02-20 20:52:00,
2013-02-20 13:07:00,44.4,40.0,29.97,South,180,6.0,12.0,84,0.00,,,0.00,weatherlink.com 1.10,2013-02-20 21:07:00,
2013-02-20 13:22:00,44.5,40.0,29.96,SSE,165,10.0,17.0,84,0.00,,,0.00,weatherlink.com 1.10,2013-02-20 21:22:00,
2013-02-20 13:37:00,44.5,40.0,29.96,SE,142,4.0,11.0,84,0.00,,,0.00,weatherlink.com 1.10,2013-02-20 21:37:00,
2013-02-20 13:52:00,44.6,40.0,29.96,SSE,162,4.0,15.0,84,0.00,,,0.00,weatherlink.com 1.10,2013-02-20 21:52:00,
2013-02-20 14:07:00,44.7,40.0,29.96,SE,136,8.0,16.0,83,0.00,,,0.00,weatherlink.com 1.10,2013-02-20 22:07:00,
2013-02-20 14:22:00,44.7,40.0,29.96,South,177,5.0,13.0,83,0.00,,,0.00,weatherlink.com 1.10,2013-02-20 22:22:00,
2013-02-20 14:37:00,44.8,40.0,29.96,SSW,193,4.0,12.0,83,0.00,,,0.00,weatherlink.com 1.10,2013-02-20 22:37:00,
2013-02-20 14:52:00,44.6,40.0,29.96,SSE,167,5.0,8.0,84,0.00,,,0.00,weatherlink.com 1.10,2013-02-20 22:52:00,
2013-02-20 15:07:00,44.2,40.0,29.96,South,181,6.0,10.0,85,0.00,,,0.00,weatherlink.com 1.10,2013-02-20 23:07:00,
2013-02-20 15:22:00,43.5,41.0,29.97,SSW,197,4.0,10.0,89,0.01,,,0.01,weatherlink.com 1.10,2013-02-20 23:22:00,
2013-02-20 15:37:00,42.8,40.0,29.97,SSE,168,1.0,6.0,91,0.02,,,0.02,weatherlink.com 1.10,2013-02-20 23:37:00,
2013-02-20 15:52:00,42.5,40.0,29.97,SSE,156,3.0,4.0,92,0.03,,,0.03,weatherlink.com 1.10,2013-02-20 23:52:00,
2013-02-20 16:07:00,42.4,41.0,29.98,SSE,159,4.0,5.0,93,0.05,,,0.05,weatherlink.com 1.10,2013-02-21 00:07:00,
2013-02-20 16:22:00,42.2,41.0,29.98,South,175,5.0,6.0,94,0.05,,,0.06,weatherlink.com 1.10,2013-02-21 00:22:00,
2013-02-20 16:37:00,41.9,40.0,29.98,SE,139,3.0,6.0,93,0.05,,,0.07,weatherlink.com 1.10,2013-02-21 00:37:00,
2013-02-20 16:52:00,41.7,40.0,29.98,SSE,159,3.0,4.0,93,0.05,,,0.08,weatherlink.com 1.10,2013-02-21 00:52:00,
2013-02-20 17:07:00,41.7,40.0,29.98,SSE,155,2.0,4.0,94,0.04,,,0.09,weatherlink.com 1.10,2013-02-21 01:07:00,
2013-02-20 17:22:00,41.7,40.0,29.98,SSE,162,3.0,4.0,94,0.04,,,0.10,weatherlink.com 1.10,2013-02-21 01:22:00,
2013-02-20 17:37:00,41.6,40.0,29.98,SSE,165,2.0,3.0,95,0.04,,,0.11,weatherlink.com 1.10,2013-02-21 01:37:00,
2013-02-20 17:53:00,41.6,40.0,29.98,SSW,197,3.0,5.0,95,0.03,,,0.11,weatherlink.com 1.10,2013-02-21 01:53:00,
2013-02-20 18:08:00,41.3,40.0,29.98,South,184,5.0,7.0,95,0.03,,,0.12,weatherlink.com 1.10,2013-02-21 02:08:00,
2013-02-20 18:23:00,40.9,39.0,29.98,SSE,165,4.0,5.0,94,0.02,,,0.12,weatherlink.com 1.10,2013-02-21 02:23:00,
2013-02-20 18:38:00,40.6,39.0,29.98,South,191,2.0,5.0,95,0.01,,,0.12,weatherlink.com 1.10,2013-02-21 02:38:00,
2013-02-20 18:53:00,40.5,39.0,29.98,SW,221,1.0,5.0,95,0.01,,,0.12,weatherlink.com 1.10,2013-02-21 02:53:00,
2013-02-20 19:08:00,40.3,39.0,29.99,South,187,1.0,4.0,96,0.00,,,0.12,weatherlink.com 1.10,2013-02-21 03:08:00,
2013-02-20 19:23:00,39.9,39.0,29.99,WSW,253,1.0,2.0,97,0.00,,,0.12,weatherlink.com 1.10,2013-02-21 03:23:00,
2013-02-20 19:38:00,40.1,39.0,29.99,WSW,243,0.0,4.0,97,0.00,,,0.12,weatherlink.com 1.10,2013-02-21 03:38:00,
2013-02-20 19:53:00,39.8,39.0,29.99,SW,233,1.0,1.0,97,0.00,,,0.12,weatherlink.com 1.10,2013-02-21 03:53:00,
2013-02-20 20:08:00,39.5,39.0,29.99,South,174,0.0,1.0,98,0.00,,,0.12,weatherlink.com 1.10,2013-02-21 04:08:00,
2013-02-20 20:23:00,39.2,39.0,29.99,South,179,1.0,1.0,98,0.00,,,0.12,weatherlink.com 1.10,2013-02-21 04:23:00,
2013-02-20 20:38:00,39.1,39.0,29.99,SSE,168,0.0,1.0,98,0.00,,,0.12,weatherlink.com 1.10,2013-02-21 04:38:00,
2013-02-20 20:53:00,39.3,39.0,29.99,West,273,1.0,3.0,98,0.00,,,0.12,weatherlink.com 1.10,2013-02-21 04:53:00,
2013-02-20 21:08:00,39.3,39.0,29.99,WSW,245,1.0,1.0,98,0.00,,,0.12,weatherlink.com 1.10,2013-02-21 05:08:00,
2013-02-20 21:23:00,39.5,39.0,29.99,WSW,238,0.0,1.0,99,0.00,,,0.12,weatherlink.com 1.10,2013-02-21 05:23:00,
2013-02-20 21:38:00,39.8,40.0,29.99,SSW,197,0.0,3.0,99,0.00,,,0.12,weatherlink.com 1.10,2013-02-21 05:38:00,
2013-02-20 21:53:00,40.2,40.0,30.00,SSW,211,0.0,4.0,98,0.00,,,0.12,weatherlink.com 1.10,2013-02-21 05:53:00,
2013-02-20 22:08:00,40.1,40.0,30.00,WSW,252,0.0,1.0,98,0.00,,,0.12,weatherlink.com 1.10,2013-02-21 06:08:00,
2013-02-20 22:23:00,40.3,40.0,30.01,SW,235,1.0,4.0,98,0.00,,,0.12,weatherlink.com 1.10,2013-02-21 06:23:00,
2013-02-20 22:38:00,40.2,40.0,30.00,South,172,4.0,5.0,98,0.00,,,0.12,weatherlink.com 1.10,2013-02-21 06:38:00,
2013-02-20 22:53:00,40.4,40.0,30.00,SW,235,0.0,4.0,97,0.00,,,0.12,weatherlink.com 1.10,2013-02-21 06:53:00,
2013-02-20 23:08:00,40.3,40.0,29.99,SE,134,1.0,2.0,97,0.00,,,0.12,weatherlink.com 1.10,2013-02-21 07:08:00,
2013-02-20 23:23:00,39.1,38.0,29.99,West,266,1.0,1.0,97,0.00,,,0.12,weatherlink.com 1.10,2013-02-21 07:23:00,
2013-02-20 23:38:00,38.2,38.0,29.98,SSE,160,0.0,1.0,98,0.00,,,0.12,weatherlink.com 1.10,2013-02-21 07:38:00,
2013-02-20 23:53:00,37.3,37.0,29.98,West,266,2.0,2.0,97,0.00,,,0.12,weatherlink.com 1.10,2013-02-21 07:53:00,